Nearby METAR Reports

 

KPIA - Peoria, Illinois, USA
Distance from station: SSW 11mi, 18km
Updated: 08/16/2018 12:54am
Few Clouds
Few Clouds
 Wind from calm
Wind: Calm
Temperature: 73°F , 23°C
Dew Point: 72°F , 22°C
Humidity: 94%
Barometer: 29.91 inHg , 1012.9 hPa
Clouds: Few Clouds
Visibility: 10 miles , 16 km
Cloud details: Few Clouds 3300 ft
2018/08/16 05:54 KPIA 160554Z 00000KT 10SM FEW033 23/22 A2991 RMK AO2 SLP122 T02280222 10250 20228 402670222 58001
KC75 - Lacon, Illinois, USA
Distance from station: NE 18mi, 30km
Updated: 08/16/2018 12:55am
Mostly cloudy
Mostly cloudy
 Wind from calm
Wind: Calm
Temperature: 70°F , 21°C
Dew Point: 70°F , 21°C
Humidity: 100%
Barometer: 29.91 inHg , 1012.9 hPa
Clouds: Mostly cloudy
Visibility: 7 miles , 11 km
Cloud details: Partly cloudy 1800 ft
Partly cloudy 2300 ft
Mostly cloudy 4600 ft
2018/08/16 05:55 KC75 160555Z AUTO 00000KT 7SM SCT018 SCT023 BKN046 21/21 A2991 RMK AO2 T02070205 10267 20205 402840205
 
KGBG - Galesburg, Illinois, USA
Distance from station: W 43mi, 69km
Updated: 08/16/2018 12:55am
Mist, Partly cloudy
Mist, Partly cloudy
 Wind from calm
Wind: Calm
Temperature: 70°F , 21°C
Dew Point: 70°F , 21°C
Humidity: 100%
Barometer: 29.93 inHg , 1013.5 hPa
Summary: Mist
Clouds: Partly cloudy
Visibility: 5 miles , 8 km
Cloud details: Partly cloudy 2000 ft
2018/08/16 05:55 KGBG 160555Z AUTO 00000KT 5SM BR SCT020 21/21 A2993 RMK AO2 T02120211 10253 20205 402610205
KBMI - Bloomington/Norm, Illinois, USA
Distance from station: ESE 44mi, 71km
Updated: 08/16/2018 12:56am
Overcast
Overcast
 Wind from S
Wind: S 9 mph , 15 km/h
Temperature: 72°F , 22°C
Dew Point: 70°F , 21°C
Humidity: 94%
Barometer: 29.93 inHg , 1013.5 hPa
Clouds: Overcast
Visibility: 7 miles , 11 km
Cloud details: Overcast 400 ft
2018/08/16 05:56 KBMI 160556Z AUTO 18008KT 7SM OVC004 22/21 A2993 RMK AO2 SLP148 T02170211 10244 20206 402610206 53000
 
KVYS - Peru, Illinois, USA
Distance from station: NNE 44mi, 71km
Updated: 08/16/2018 12:55am
Fog, Overcast
Fog, Overcast
 Wind from calm
Wind: Calm
Temperature: 72°F , 22°C
Dew Point: 72°F , 22°C
Humidity: 100%
Barometer: 29.93 inHg , 1013.5 hPa
Summary: Fog
Clouds: Overcast
Visibility: 1/4 mile , 0.4 km
Cloud details: Overcast 300 ft
2018/08/16 05:55 KVYS 160555Z AUTO 00000KT 1/4SM FG OVC003 22/22 A2993 RMK AO2 60006 T02200216 10233 20216 402820216
KAAA - Lincoln, Illinois, USA
Distance from station: SSE 48mi, 77km
Updated: 08/16/2018 12:55am
Overcast
Overcast
 Wind from calm
Wind: Calm
Temperature: 73°F , 23°C
Dew Point: 73°F , 23°C
Humidity: 100%
Barometer: 29.92 inHg , 1013.2 hPa
Clouds: Overcast
Visibility: 10 miles , 16 km
Cloud details: Overcast 400 ft
2018/08/16 05:55 KAAA 160555Z AUTO 00000KT 10SM OVC004 23/23 A2992 RMK AO2 T02250225 10255 20216 402700208
 
KPNT - Pontiac, Illinois, USA
Distance from station: E 53mi, 85km
Updated: 08/16/2018 12:55am
Mist, Partly cloudy
Mist, Partly cloudy
 Wind from calm
Wind: Calm
Temperature: 68°F , 20°C
Dew Point: 68°F , 20°C
Humidity: 100%
Barometer: 29.93 inHg , 1013.5 hPa
Summary: Mist
Clouds: Partly cloudy
Visibility: 5 miles , 8 km
Cloud details: Partly cloudy 1300 ft
Partly cloudy 1800 ft
2018/08/16 05:55 KPNT 160555Z AUTO 00000KT 5SM BR SCT013 SCT018 20/20 A2993 RMK AO2 T02000197 10260 20200 402870200
KMQB - Macomb Muni, Illinois, USA
Distance from station: WSW 58mi, 93km
Updated: 08/16/2018 12:55am
Fog, Overcast
Fog, Overcast
 Wind from calm
Wind: Calm
Temperature: 68°F , 20°C
Dew Point: 68°F , 20°C
Humidity: 100%
Barometer: 29.93 inHg , 1013.5 hPa
Summary: Fog
Clouds: Overcast
Visibility: 1/2 mile , 0.8 km
Cloud details: Overcast 200 ft
2018/08/16 05:55 KMQB 160555Z AUTO 00000KT 1/2SM FG OVC002 20/20 A2993 RMK AO2 T01950195 10251 20195 402670195
 
KMLI - Moline/Quad City, Illinois, USA
Distance from station: NW 64mi, 103km
Updated: 08/16/2018 1:01am
Mostly cloudy
Mostly cloudy
 Wind from E
Wind: E 3 mph , 6 km/h
Temperature: 72°F , 22°C
Dew Point: 70°F , 21°C
Humidity: 94%
Barometer: 29.90 inHg , 1012.5 hPa
Clouds: Mostly cloudy
Visibility: 10 miles , 16 km
Cloud details: Partly cloudy 2600 ft
Mostly cloudy 3200 ft
Mostly cloudy 5000 ft
2018/08/16 06:01 KMLI 160601Z AUTO 10003KT 10SM SCT026 BKN032 BKN050 22/21 A2990 RMK AO2 T02220211
KSQI - Sterling Rockfal, Illinois, USA
Distance from station: N 64mi, 103km
Updated: 08/16/2018 12:56am
Mist, Clear
Mist, Clear
 Wind from ESE
Wind: ESE 5 mph , 7 km/h
Temperature: 70°F , 21°C
Dew Point: 70°F , 21°C
Humidity: 100%
Summary: Mist
Clouds: Clear
Visibility: 3 miles , 5 km
2018/08/16 05:56 KSQI 160556Z AUTO 12004KT 3SM BR CLR 21/21 RMK AO2 SLPNO T02060206 10250 20206 402720194 $
 
KSPI - Springfield, Illinois, USA
Distance from station: S 67mi, 108km
Updated: 08/16/2018 12:52am
Mostly cloudy
Mostly cloudy
 Wind from SSW
Wind: SSW 3 mph , 6 km/h
Temperature: 73°F , 23°C
Dew Point: 73°F , 23°C
Humidity: 100%
Barometer: 29.91 inHg , 1012.9 hPa
Clouds: Mostly cloudy
Visibility: 10 miles , 16 km
Cloud details: Mostly cloudy 700 ft
2018/08/16 05:52 KSPI 160552Z AUTO 20003KT 10SM BKN007 23/23 A2991 RMK AO2 SLP124 T02330228 10261 20228 402780228 50003
KDVN - Davenport/Quad C, Iowa, USA
Distance from station: NW 74mi, 120km
Updated: 08/16/2018 12:52am
Few Clouds
Few Clouds
 Wind from ESE
Wind: ESE 3 mph , 6 km/h
Temperature: 70°F , 21°C
Dew Point: 68°F , 20°C
Humidity: 94%
Barometer: 29.93 inHg , 1013.5 hPa
Clouds: Few Clouds
Visibility: 10 miles , 16 km
Cloud details: Few Clouds 5500 ft
2018/08/16 05:52 KDVN 160552Z AUTO 12003KT 10SM FEW055 21/20 A2993 RMK AO2 SLP126 60000 T02110200 10256 20211 402830211 50002